sensor_id;sensor_type;location;lat;lon;timestamp;P1;durP1;ratioP1;P2;durP2;ratioP2
10880;SDS011;5493;48.884;8.338;2024-03-22T00:00:19;4.80;;;2.20;;
10880;SDS011;5493;48.884;8.338;2024-03-22T00:02:44;2.27;;;2.00;;
10880;SDS011;5493;48.884;8.338;2024-03-22T00:05:11;3.20;;;2.40;;
10880;SDS011;5493;48.884;8.338;2024-03-22T00:07:36;4.10;;;2.07;;
10880;SDS011;5493;48.884;8.338;2024-03-22T00:10:04;4.10;;;2.50;;
10880;SDS011;5493;48.884;8.338;2024-03-22T00:12:30;3.37;;;2.47;;
10880;SDS011;5493;48.884;8.338;2024-03-22T00:14:58;3.60;;;2.27;;
10880;SDS011;5493;48.884;8.338;2024-03-22T00:17:23;5.77;;;2.77;;
10880;SDS011;5493;48.884;8.338;2024-03-22T00:19:50;4.13;;;2.50;;
10880;SDS011;5493;48.884;8.338;2024-03-22T00:22:15;3.40;;;2.40;;
10880;SDS011;5493;48.884;8.338;2024-03-22T00:24:42;2.60;;;2.20;;
10880;SDS011;5493;48.884;8.338;2024-03-22T00:27:07;2.70;;;2.20;;
10880;SDS011;5493;48.884;8.338;2024-03-22T00:29:36;3.23;;;2.27;;
10880;SDS011;5493;48.884;8.338;2024-03-22T00:32:04;3.00;;;2.37;;
10880;SDS011;5493;48.884;8.338;2024-03-22T00:34:32;4.00;;;2.53;;
10880;SDS011;5493;48.884;8.338;2024-03-22T00:36:58;3.97;;;2.70;;
10880;SDS011;5493;48.884;8.338;2024-03-22T00:39:24;3.27;;;2.43;;
10880;SDS011;5493;48.884;8.338;2024-03-22T00:41:50;3.03;;;2.40;;
10880;SDS011;5493;48.884;8.338;2024-03-22T00:44:16;2.83;;;2.20;;
10880;SDS011;5493;48.884;8.338;2024-03-22T00:46:42;5.07;;;2.70;;
10880;SDS011;5493;48.884;8.338;2024-03-22T00:49:10;3.17;;;2.77;;
10880;SDS011;5493;48.884;8.338;2024-03-22T00:51:36;3.20;;;2.40;;
10880;SDS011;5493;48.884;8.338;2024-03-22T00:54:02;3.13;;;2.20;;
10880;SDS011;5493;48.884;8.338;2024-03-22T00:56:29;3.60;;;2.50;;
10880;SDS011;5493;48.884;8.338;2024-03-22T00:58:55;5.03;;;2.60;;
10880;SDS011;5493;48.884;8.338;2024-03-22T01:01:21;4.73;;;2.60;;
10880;SDS011;5493;48.884;8.338;2024-03-22T01:03:47;4.23;;;2.63;;
10880;SDS011;5493;48.884;8.338;2024-03-22T01:06:14;3.80;;;2.70;;
10880;SDS011;5493;48.884;8.338;2024-03-22T01:08:41;2.77;;;2.33;;
10880;SDS011;5493;48.884;8.338;2024-03-22T01:11:06;4.73;;;2.53;;
10880;SDS011;5493;48.884;8.338;2024-03-22T01:13:33;2.73;;;2.43;;
10880;SDS011;5493;48.884;8.338;2024-03-22T01:15:58;3.53;;;2.50;;
10880;SDS011;5493;48.884;8.338;2024-03-22T01:18:25;2.87;;;2.37;;
10880;SDS011;5493;48.884;8.338;2024-03-22T01:20:50;4.17;;;2.43;;
10880;SDS011;5493;48.884;8.338;2024-03-22T01:23:18;3.17;;;2.23;;
10880;SDS011;5493;48.884;8.338;2024-03-22T01:25:44;3.83;;;2.47;;
10880;SDS011;5493;48.884;8.338;2024-03-22T01:28:11;3.33;;;2.53;;
10880;SDS011;5493;48.884;8.338;2024-03-22T01:30:36;3.30;;;2.37;;
10880;SDS011;5493;48.884;8.338;2024-03-22T01:33:03;2.80;;;2.33;;
10880;SDS011;5493;48.884;8.338;2024-03-22T01:35:29;3.33;;;2.67;;
10880;SDS011;5493;48.884;8.338;2024-03-22T01:37:56;5.00;;;2.97;;
10880;SDS011;5493;48.884;8.338;2024-03-22T01:40:23;3.73;;;2.40;;
10880;SDS011;5493;48.884;8.338;2024-03-22T01:42:52;3.47;;;2.57;;
10880;SDS011;5493;48.884;8.338;2024-03-22T01:45:18;3.60;;;2.23;;
10880;SDS011;5493;48.884;8.338;2024-03-22T01:47:45;4.57;;;2.30;;
10880;SDS011;5493;48.884;8.338;2024-03-22T01:50:10;2.97;;;2.40;;
10880;SDS011;5493;48.884;8.338;2024-03-22T01:52:37;3.60;;;2.40;;
10880;SDS011;5493;48.884;8.338;2024-03-22T01:55:04;4.03;;;2.20;;
10880;SDS011;5493;48.884;8.338;2024-03-22T01:57:33;4.80;;;2.27;;
10880;SDS011;5493;48.884;8.338;2024-03-22T01:59:59;2.70;;;2.03;;
10880;SDS011;5493;48.884;8.338;2024-03-22T02:02:26;4.47;;;2.43;;
10880;SDS011;5493;48.884;8.338;2024-03-22T02:04:51;4.77;;;2.20;;
10880;SDS011;5493;48.884;8.338;2024-03-22T02:07:18;4.77;;;2.30;;
10880;SDS011;5493;48.884;8.338;2024-03-22T02:09:43;2.83;;;2.00;;
10880;SDS011;5493;48.884;8.338;2024-03-22T02:12:10;2.90;;;2.27;;
10880;SDS011;5493;48.884;8.338;2024-03-22T02:14:38;3.30;;;2.53;;
10880;SDS011;5493;48.884;8.338;2024-03-22T02:17:04;2.47;;;1.83;;
10880;SDS011;5493;48.884;8.338;2024-03-22T02:19:30;4.13;;;2.40;;
10880;SDS011;5493;48.884;8.338;2024-03-22T02:21:56;3.10;;;2.40;;
10880;SDS011;5493;48.884;8.338;2024-03-22T02:24:23;2.67;;;1.97;;
10880;SDS011;5493;48.884;8.338;2024-03-22T02:26:49;3.80;;;2.33;;
10880;SDS011;5493;48.884;8.338;2024-03-22T02:29:15;8.47;;;2.70;;
10880;SDS011;5493;48.884;8.338;2024-03-22T02:31:41;3.67;;;2.53;;
10880;SDS011;5493;48.884;8.338;2024-03-22T02:34:07;9.10;;;2.50;;
10880;SDS011;5493;48.884;8.338;2024-03-22T02:36:33;3.37;;;2.30;;
10880;SDS011;5493;48.884;8.338;2024-03-22T02:38:59;3.07;;;2.20;;
10880;SDS011;5493;48.884;8.338;2024-03-22T02:41:27;3.07;;;2.10;;
10880;SDS011;5493;48.884;8.338;2024-03-22T02:43:53;4.07;;;2.07;;
10880;SDS011;5493;48.884;8.338;2024-03-22T02:46:19;3.03;;;2.33;;
10880;SDS011;5493;48.884;8.338;2024-03-22T02:48:45;2.40;;;2.20;;
10880;SDS011;5493;48.884;8.338;2024-03-22T02:51:11;4.03;;;2.20;;
10880;SDS011;5493;48.884;8.338;2024-03-22T02:53:36;2.30;;;2.10;;
10880;SDS011;5493;48.884;8.338;2024-03-22T02:56:03;2.80;;;2.07;;
10880;SDS011;5493;48.884;8.338;2024-03-22T02:58:31;2.23;;;1.80;;
10880;SDS011;5493;48.884;8.338;2024-03-22T03:00:57;6.07;;;2.10;;
10880;SDS011;5493;48.884;8.338;2024-03-22T03:03:23;3.90;;;2.13;;
10880;SDS011;5493;48.884;8.338;2024-03-22T03:05:49;4.20;;;2.30;;
10880;SDS011;5493;48.884;8.338;2024-03-22T03:08:15;3.30;;;2.40;;
10880;SDS011;5493;48.884;8.338;2024-03-22T03:10:41;5.03;;;2.30;;
10880;SDS011;5493;48.884;8.338;2024-03-22T03:13:07;3.97;;;1.93;;
10880;SDS011;5493;48.884;8.338;2024-03-22T03:15:34;4.60;;;2.00;;
10880;SDS011;5493;48.884;8.338;2024-03-22T03:18:00;4.17;;;2.20;;
10880;SDS011;5493;48.884;8.338;2024-03-22T03:20:27;3.73;;;2.03;;
10880;SDS011;5493;48.884;8.338;2024-03-22T03:22:52;2.20;;;1.90;;
10880;SDS011;5493;48.884;8.338;2024-03-22T03:25:19;3.40;;;2.13;;
10880;SDS011;5493;48.884;8.338;2024-03-22T03:27:45;3.33;;;2.20;;
10880;SDS011;5493;48.884;8.338;2024-03-22T03:30:12;3.53;;;2.30;;
10880;SDS011;5493;48.884;8.338;2024-03-22T03:32:39;3.73;;;2.10;;
10880;SDS011;5493;48.884;8.338;2024-03-22T03:35:05;3.90;;;2.30;;
10880;SDS011;5493;48.884;8.338;2024-03-22T03:37:31;2.40;;;2.07;;
10880;SDS011;5493;48.884;8.338;2024-03-22T03:39:58;3.70;;;2.07;;
10880;SDS011;5493;48.884;8.338;2024-03-22T03:42:23;3.50;;;2.10;;
10880;SDS011;5493;48.884;8.338;2024-03-22T03:44:50;2.30;;;2.07;;
10880;SDS011;5493;48.884;8.338;2024-03-22T03:47:15;2.60;;;2.17;;
10880;SDS011;5493;48.884;8.338;2024-03-22T03:49:44;2.90;;;2.10;;
10880;SDS011;5493;48.884;8.338;2024-03-22T03:52:10;3.43;;;2.23;;
10880;SDS011;5493;48.884;8.338;2024-03-22T03:54:36;4.37;;;2.30;;
10880;SDS011;5493;48.884;8.338;2024-03-22T03:57:02;3.70;;;2.10;;
10880;SDS011;5493;48.884;8.338;2024-03-22T03:59:29;2.33;;;2.10;;
10880;SDS011;5493;48.884;8.338;2024-03-22T04:01:54;2.37;;;2.10;;
10880;SDS011;5493;48.884;8.338;2024-03-22T04:04:21;3.53;;;2.10;;
10880;SDS011;5493;48.884;8.338;2024-03-22T04:06:48;3.93;;;2.27;;
10880;SDS011;5493;48.884;8.338;2024-03-22T04:09:14;4.83;;;3.10;;
10880;SDS011;5493;48.884;8.338;2024-03-22T04:11:40;3.93;;;3.30;;
10880;SDS011;5493;48.884;8.338;2024-03-22T04:14:07;3.97;;;2.83;;
10880;SDS011;5493;48.884;8.338;2024-03-22T04:16:32;4.10;;;2.40;;
10880;SDS011;5493;48.884;8.338;2024-03-22T04:18:59;4.70;;;2.00;;
10880;SDS011;5493;48.884;8.338;2024-03-22T04:21:24;2.47;;;2.00;;
10880;SDS011;5493;48.884;8.338;2024-03-22T04:23:52;6.40;;;2.07;;
10880;SDS011;5493;48.884;8.338;2024-03-22T04:26:18;2.60;;;1.80;;
10880;SDS011;5493;48.884;8.338;2024-03-22T04:28:44;2.40;;;1.50;;
10880;SDS011;5493;48.884;8.338;2024-03-22T04:31:10;3.07;;;1.80;;
10880;SDS011;5493;48.884;8.338;2024-03-22T04:33:36;3.07;;;1.60;;
10880;SDS011;5493;48.884;8.338;2024-03-22T04:36:03;3.03;;;1.70;;
10880;SDS011;5493;48.884;8.338;2024-03-22T04:38:30;4.30;;;1.93;;
10880;SDS011;5493;48.884;8.338;2024-03-22T04:40:59;3.80;;;1.83;;
10880;SDS011;5493;48.884;8.338;2024-03-22T04:43:26;3.83;;;2.03;;
10880;SDS011;5493;48.884;8.338;2024-03-22T04:45:54;3.93;;;1.97;;
10880;SDS011;5493;48.884;8.338;2024-03-22T04:48:21;2.73;;;1.90;;
10880;SDS011;5493;48.884;8.338;2024-03-22T04:50:48;3.20;;;1.80;;
10880;SDS011;5493;48.884;8.338;2024-03-22T04:53:15;2.80;;;1.93;;
10880;SDS011;5493;48.884;8.338;2024-03-22T04:55:42;2.23;;;1.70;;
10880;SDS011;5493;48.884;8.338;2024-03-22T04:58:11;2.27;;;1.70;;
10880;SDS011;5493;48.884;8.338;2024-03-22T05:00:38;3.27;;;1.90;;
10880;SDS011;5493;48.884;8.338;2024-03-22T05:03:04;4.47;;;2.10;;
10880;SDS011;5493;48.884;8.338;2024-03-22T05:05:30;4.57;;;2.83;;
10880;SDS011;5493;48.884;8.338;2024-03-22T05:07:56;3.53;;;2.63;;
10880;SDS011;5493;48.884;8.338;2024-03-22T05:10:22;4.53;;;3.07;;
10880;SDS011;5493;48.884;8.338;2024-03-22T05:12:48;3.53;;;2.77;;
10880;SDS011;5493;48.884;8.338;2024-03-22T05:15:15;3.67;;;2.90;;
10880;SDS011;5493;48.884;8.338;2024-03-22T05:17:42;5.00;;;3.03;;
10880;SDS011;5493;48.884;8.338;2024-03-22T05:20:09;4.10;;;2.70;;
10880;SDS011;5493;48.884;8.338;2024-03-22T05:22:36;3.90;;;3.10;;
10880;SDS011;5493;48.884;8.338;2024-03-22T05:25:03;5.77;;;2.90;;
10880;SDS011;5493;48.884;8.338;2024-03-22T05:27:30;5.30;;;2.77;;
10880;SDS011;5493;48.884;8.338;2024-03-22T05:29:57;9.20;;;4.60;;
10880;SDS011;5493;48.884;8.338;2024-03-22T05:32:24;7.60;;;4.00;;
10880;SDS011;5493;48.884;8.338;2024-03-22T05:34:50;6.13;;;3.77;;
10880;SDS011;5493;48.884;8.338;2024-03-22T05:37:17;7.33;;;3.27;;
10880;SDS011;5493;48.884;8.338;2024-03-22T05:39:43;4.40;;;3.30;;
10880;SDS011;5493;48.884;8.338;2024-03-22T05:42:09;5.53;;;3.10;;
10880;SDS011;5493;48.884;8.338;2024-03-22T05:44:35;6.77;;;3.67;;
10880;SDS011;5493;48.884;8.338;2024-03-22T05:47:01;6.37;;;3.47;;
10880;SDS011;5493;48.884;8.338;2024-03-22T05:49:29;4.10;;;2.50;;
10880;SDS011;5493;48.884;8.338;2024-03-22T05:51:55;4.63;;;3.20;;
10880;SDS011;5493;48.884;8.338;2024-03-22T05:54:21;4.97;;;2.97;;
10880;SDS011;5493;48.884;8.338;2024-03-22T05:56:47;6.90;;;2.93;;
10880;SDS011;5493;48.884;8.338;2024-03-22T05:59:13;3.07;;;2.77;;
10880;SDS011;5493;48.884;8.338;2024-03-22T06:01:39;3.47;;;2.93;;
10880;SDS011;5493;48.884;8.338;2024-03-22T06:04:06;6.37;;;3.10;;
10880;SDS011;5493;48.884;8.338;2024-03-22T06:06:33;4.80;;;2.87;;
10880;SDS011;5493;48.884;8.338;2024-03-22T06:09:00;5.37;;;3.13;;
10880;SDS011;5493;48.884;8.338;2024-03-22T06:11:28;4.57;;;2.97;;
10880;SDS011;5493;48.884;8.338;2024-03-22T06:13:55;3.80;;;2.80;;
10880;SDS011;5493;48.884;8.338;2024-03-22T06:16:20;5.80;;;3.30;;
10880;SDS011;5493;48.884;8.338;2024-03-22T06:18:47;6.87;;;3.13;;
10880;SDS011;5493;48.884;8.338;2024-03-22T06:21:13;5.23;;;3.63;;
10880;SDS011;5493;48.884;8.338;2024-03-22T06:23:41;4.93;;;3.83;;
10880;SDS011;5493;48.884;8.338;2024-03-22T06:26:06;6.50;;;4.40;;
10880;SDS011;5493;48.884;8.338;2024-03-22T06:28:33;4.60;;;3.20;;
10880;SDS011;5493;48.884;8.338;2024-03-22T06:30:59;4.20;;;2.80;;
10880;SDS011;5493;48.884;8.338;2024-03-22T06:33:25;4.63;;;2.93;;
10880;SDS011;5493;48.884;8.338;2024-03-22T06:35:51;4.70;;;3.20;;
10880;SDS011;5493;48.884;8.338;2024-03-22T06:38:18;4.87;;;2.87;;
10880;SDS011;5493;48.884;8.338;2024-03-22T06:40:45;3.97;;;2.97;;
10880;SDS011;5493;48.884;8.338;2024-03-22T06:43:12;4.67;;;3.20;;
10880;SDS011;5493;48.884;8.338;2024-03-22T06:45:37;4.90;;;3.20;;
10880;SDS011;5493;48.884;8.338;2024-03-22T06:48:04;5.30;;;2.80;;
10880;SDS011;5493;48.884;8.338;2024-03-22T06:50:30;6.47;;;3.20;;
10880;SDS011;5493;48.884;8.338;2024-03-22T06:52:57;6.73;;;3.40;;
10880;SDS011;5493;48.884;8.338;2024-03-22T06:55:22;5.40;;;3.47;;
10880;SDS011;5493;48.884;8.338;2024-03-22T06:57:50;5.50;;;3.83;;
10880;SDS011;5493;48.884;8.338;2024-03-22T07:00:17;4.27;;;3.50;;
10880;SDS011;5493;48.884;8.338;2024-03-22T07:02:44;5.10;;;3.77;;
10880;SDS011;5493;48.884;8.338;2024-03-22T07:05:10;5.53;;;3.70;;
10880;SDS011;5493;48.884;8.338;2024-03-22T07:07:37;4.63;;;3.40;;
10880;SDS011;5493;48.884;8.338;2024-03-22T07:10:03;4.87;;;3.50;;
10880;SDS011;5493;48.884;8.338;2024-03-22T07:12:31;6.67;;;3.70;;
10880;SDS011;5493;48.884;8.338;2024-03-22T07:14:58;5.53;;;3.80;;
10880;SDS011;5493;48.884;8.338;2024-03-22T07:17:25;5.90;;;3.27;;
10880;SDS011;5493;48.884;8.338;2024-03-22T07:19:51;4.83;;;3.40;;
10880;SDS011;5493;48.884;8.338;2024-03-22T07:22:18;6.53;;;3.70;;
10880;SDS011;5493;48.884;8.338;2024-03-22T07:24:43;8.77;;;3.37;;
10880;SDS011;5493;48.884;8.338;2024-03-22T07:27:10;7.03;;;3.77;;
10880;SDS011;5493;48.884;8.338;2024-03-22T07:29:36;5.07;;;3.67;;
10880;SDS011;5493;48.884;8.338;2024-03-22T07:32:04;5.60;;;3.70;;
10880;SDS011;5493;48.884;8.338;2024-03-22T07:34:30;5.80;;;4.03;;
10880;SDS011;5493;48.884;8.338;2024-03-22T07:36:57;5.10;;;4.17;;
10880;SDS011;5493;48.884;8.338;2024-03-22T07:39:23;6.10;;;3.50;;
10880;SDS011;5493;48.884;8.338;2024-03-22T07:41:49;7.87;;;3.83;;
10880;SDS011;5493;48.884;8.338;2024-03-22T07:44:15;4.47;;;3.10;;
10880;SDS011;5493;48.884;8.338;2024-03-22T07:46:43;6.53;;;3.83;;
10880;SDS011;5493;48.884;8.338;2024-03-22T07:49:10;7.33;;;3.43;;
10880;SDS011;5493;48.884;8.338;2024-03-22T07:51:37;5.33;;;3.57;;
10880;SDS011;5493;48.884;8.338;2024-03-22T07:54:02;5.10;;;3.83;;
10880;SDS011;5493;48.884;8.338;2024-03-22T07:56:29;7.37;;;3.83;;
10880;SDS011;5493;48.884;8.338;2024-03-22T07:58:55;5.70;;;4.27;;
10880;SDS011;5493;48.884;8.338;2024-03-22T08:01:22;6.27;;;3.63;;
10880;SDS011;5493;48.884;8.338;2024-03-22T08:03:47;5.03;;;3.40;;
10880;SDS011;5493;48.884;8.338;2024-03-22T08:06:15;6.00;;;3.93;;
10880;SDS011;5493;48.884;8.338;2024-03-22T08:08:40;5.30;;;3.63;;
10880;SDS011;5493;48.884;8.338;2024-03-22T08:11:07;6.17;;;3.67;;
10880;SDS011;5493;48.884;8.338;2024-03-22T08:13:33;8.10;;;4.40;;
10880;SDS011;5493;48.884;8.338;2024-03-22T08:15:59;6.47;;;4.37;;
10880;SDS011;5493;48.884;8.338;2024-03-22T08:18:25;5.33;;;3.83;;
10880;SDS011;5493;48.884;8.338;2024-03-22T08:20:51;4.77;;;4.00;;
10880;SDS011;5493;48.884;8.338;2024-03-22T08:23:18;5.60;;;3.73;;
10880;SDS011;5493;48.884;8.338;2024-03-22T08:25:45;5.10;;;4.00;;
10880;SDS011;5493;48.884;8.338;2024-03-22T08:28:12;6.77;;;3.77;;
10880;SDS011;5493;48.884;8.338;2024-03-22T08:30:40;7.53;;;3.40;;
10880;SDS011;5493;48.884;8.338;2024-03-22T08:33:06;6.53;;;3.77;;
10880;SDS011;5493;48.884;8.338;2024-03-22T08:35:32;5.83;;;3.80;;
10880;SDS011;5493;48.884;8.338;2024-03-22T08:37:58;5.57;;;3.50;;
10880;SDS011;5493;48.884;8.338;2024-03-22T08:40:26;5.50;;;3.80;;
10880;SDS011;5493;48.884;8.338;2024-03-22T08:42:52;5.93;;;3.77;;
10880;SDS011;5493;48.884;8.338;2024-03-22T08:45:19;6.90;;;3.43;;
10880;SDS011;5493;48.884;8.338;2024-03-22T08:47:44;7.13;;;3.30;;
10880;SDS011;5493;48.884;8.338;2024-03-22T08:50:11;5.70;;;3.43;;
10880;SDS011;5493;48.884;8.338;2024-03-22T08:52:38;4.30;;;3.20;;
10880;SDS011;5493;48.884;8.338;2024-03-22T08:55:04;6.23;;;3.70;;
10880;SDS011;5493;48.884;8.338;2024-03-22T08:57:33;6.50;;;3.60;;
10880;SDS011;5493;48.884;8.338;2024-03-22T08:59:59;3.63;;;2.93;;
10880;SDS011;5493;48.884;8.338;2024-03-22T09:02:25;5.57;;;3.73;;
10880;SDS011;5493;48.884;8.338;2024-03-22T09:04:51;4.65;;;3.15;;
10880;SDS011;5493;48.884;8.338;2024-03-22T09:07:18;4.57;;;3.60;;
10880;SDS011;5493;48.884;8.338;2024-03-22T09:09:44;4.57;;;3.60;;
10880;SDS011;5493;48.884;8.338;2024-03-22T09:12:11;5.82;;;3.15;;
10880;SDS011;5493;48.884;8.338;2024-03-22T09:14:38;5.85;;;3.28;;
10880;SDS011;5493;48.884;8.338;2024-03-22T09:17:05;5.32;;;3.30;;
10880;SDS011;5493;48.884;8.338;2024-03-22T09:19:30;4.60;;;3.65;;
10880;SDS011;5493;48.884;8.338;2024-03-22T09:21:57;4.75;;;3.60;;
10880;SDS011;5493;48.884;8.338;2024-03-22T09:24:22;6.63;;;3.72;;
10880;SDS011;5493;48.884;8.338;2024-03-22T09:26:49;6.88;;;3.45;;
10880;SDS011;5493;48.884;8.338;2024-03-22T09:29:15;7.95;;;3.80;;
10880;SDS011;5493;48.884;8.338;2024-03-22T09:31:44;6.85;;;3.80;;
10880;SDS011;5493;48.884;8.338;2024-03-22T09:34:11;4.57;;;3.63;;
10880;SDS011;5493;48.884;8.338;2024-03-22T09:36:38;4.80;;;3.53;;
10880;SDS011;5493;48.884;8.338;2024-03-22T09:39:04;4.90;;;3.40;;
10880;SDS011;5493;48.884;8.338;2024-03-22T09:41:31;7.07;;;3.97;;
10880;SDS011;5493;48.884;8.338;2024-03-22T09:43:58;4.78;;;3.75;;
10880;SDS011;5493;48.884;8.338;2024-03-22T09:46:25;4.50;;;3.38;;
10880;SDS011;5493;48.884;8.338;2024-03-22T09:48:53;8.98;;;4.00;;
10880;SDS011;5493;48.884;8.338;2024-03-22T09:51:20;6.80;;;3.40;;
10880;SDS011;5493;48.884;8.338;2024-03-22T09:53:46;5.22;;;3.50;;
10880;SDS011;5493;48.884;8.338;2024-03-22T09:56:15;4.85;;;3.65;;
10880;SDS011;5493;48.884;8.338;2024-03-22T09:58:43;4.32;;;3.15;;
10880;SDS011;5493;48.884;8.338;2024-03-22T10:01:10;4.35;;;3.63;;
10880;SDS011;5493;48.884;8.338;2024-03-22T10:03:37;3.72;;;3.10;;
10880;SDS011;5493;48.884;8.338;2024-03-22T10:06:06;6.25;;;3.40;;
10880;SDS011;5493;48.884;8.338;2024-03-22T10:08:31;3.13;;;2.55;;
10880;SDS011;5493;48.884;8.338;2024-03-22T10:11:01;5.18;;;3.17;;
10880;SDS011;5493;48.884;8.338;2024-03-22T10:13:28;6.90;;;3.20;;
10880;SDS011;5493;48.884;8.338;2024-03-22T10:15:55;6.22;;;3.40;;
10880;SDS011;5493;48.884;8.338;2024-03-22T10:18:22;4.55;;;3.00;;
10880;SDS011;5493;48.884;8.338;2024-03-22T10:20:58;4.57;;;3.25;;
10880;SDS011;5493;48.884;8.338;2024-03-22T10:23:26;3.88;;;3.30;;
10880;SDS011;5493;48.884;8.338;2024-03-22T10:25:53;4.63;;;3.50;;
10880;SDS011;5493;48.884;8.338;2024-03-22T10:28:18;5.38;;;3.22;;
10880;SDS011;5493;48.884;8.338;2024-03-22T10:30:45;3.92;;;3.45;;
10880;SDS011;5493;48.884;8.338;2024-03-22T10:33:14;5.30;;;3.28;;
10880;SDS011;5493;48.884;8.338;2024-03-22T10:35:41;5.13;;;3.40;;
10880;SDS011;5493;48.884;8.338;2024-03-22T10:38:09;5.60;;;3.55;;
10880;SDS011;5493;48.884;8.338;2024-03-22T10:40:39;8.20;;;4.10;;
10880;SDS011;5493;48.884;8.338;2024-03-22T10:43:09;4.72;;;3.13;;
10880;SDS011;5493;48.884;8.338;2024-03-22T10:45:35;9.00;;;3.20;;
10880;SDS011;5493;48.884;8.338;2024-03-22T10:48:03;4.97;;;3.08;;
10880;SDS011;5493;48.884;8.338;2024-03-22T10:50:36;5.22;;;3.15;;
10880;SDS011;5493;48.884;8.338;2024-03-22T10:53:06;5.07;;;2.92;;
10880;SDS011;5493;48.884;8.338;2024-03-22T10:55:35;5.45;;;3.17;;
10880;SDS011;5493;48.884;8.338;2024-03-22T10:58:05;4.30;;;2.83;;
10880;SDS011;5493;48.884;8.338;2024-03-22T11:00:33;3.25;;;2.55;;
10880;SDS011;5493;48.884;8.338;2024-03-22T11:03:01;4.20;;;2.72;;
10880;SDS011;5493;48.884;8.338;2024-03-22T11:05:28;4.43;;;2.63;;
10880;SDS011;5493;48.884;8.338;2024-03-22T11:08:00;4.40;;;2.85;;
10880;SDS011;5493;48.884;8.338;2024-03-22T11:10:28;3.25;;;2.45;;
10880;SDS011;5493;48.884;8.338;2024-03-22T11:12:55;7.45;;;2.70;;
10880;SDS011;5493;48.884;8.338;2024-03-22T11:15:23;4.55;;;2.33;;
10880;SDS011;5493;48.884;8.338;2024-03-22T11:17:49;5.90;;;2.45;;
10880;SDS011;5493;48.884;8.338;2024-03-22T11:20:16;3.03;;;2.53;;
10880;SDS011;5493;48.884;8.338;2024-03-22T11:22:42;6.05;;;3.00;;
10880;SDS011;5493;48.884;8.338;2024-03-22T11:25:08;4.63;;;2.67;;
10880;SDS011;5493;48.884;8.338;2024-03-22T11:27:34;6.13;;;2.97;;
10880;SDS011;5493;48.884;8.338;2024-03-22T11:30:01;3.33;;;2.78;;
10880;SDS011;5493;48.884;8.338;2024-03-22T11:32:29;3.67;;;2.63;;
10880;SDS011;5493;48.884;8.338;2024-03-22T11:34:56;2.95;;;2.42;;
10880;SDS011;5493;48.884;8.338;2024-03-22T11:37:22;5.63;;;2.53;;
10880;SDS011;5493;48.884;8.338;2024-03-22T11:39:48;4.57;;;2.70;;
10880;SDS011;5493;48.884;8.338;2024-03-22T11:42:14;4.65;;;2.22;;
10880;SDS011;5493;48.884;8.338;2024-03-22T11:44:42;5.15;;;2.45;;
10880;SDS011;5493;48.884;8.338;2024-03-22T11:47:08;3.65;;;2.42;;
10880;SDS011;5493;48.884;8.338;2024-03-22T11:49:36;4.72;;;2.20;;
10880;SDS011;5493;48.884;8.338;2024-03-22T11:52:02;2.53;;;2.25;;
10880;SDS011;5493;48.884;8.338;2024-03-22T11:54:28;4.15;;;2.58;;
10880;SDS011;5493;48.884;8.338;2024-03-22T11:56:55;4.78;;;2.70;;
10880;SDS011;5493;48.884;8.338;2024-03-22T11:59:22;4.35;;;2.60;;
10880;SDS011;5493;48.884;8.338;2024-03-22T12:01:47;3.85;;;2.60;;
10880;SDS011;5493;48.884;8.338;2024-03-22T12:04:14;5.43;;;2.30;;
10880;SDS011;5493;48.884;8.338;2024-03-22T12:06:43;2.55;;;2.33;;
10880;SDS011;5493;48.884;8.338;2024-03-22T12:09:11;4.28;;;2.40;;
10880;SDS011;5493;48.884;8.338;2024-03-22T12:11:37;6.20;;;2.60;;
10880;SDS011;5493;48.884;8.338;2024-03-22T12:14:04;3.60;;;2.53;;
10880;SDS011;5493;48.884;8.338;2024-03-22T12:16:30;2.85;;;2.58;;
10880;SDS011;5493;48.884;8.338;2024-03-22T12:18:57;3.75;;;2.50;;
10880;SDS011;5493;48.884;8.338;2024-03-22T12:21:22;6.63;;;2.67;;
10880;SDS011;5493;48.884;8.338;2024-03-22T12:23:51;3.60;;;2.55;;
10880;SDS011;5493;48.884;8.338;2024-03-22T12:26:16;4.50;;;2.60;;
10880;SDS011;5493;48.884;8.338;2024-03-22T12:28:43;5.15;;;2.78;;
10880;SDS011;5493;48.884;8.338;2024-03-22T12:31:09;3.50;;;2.10;;
10880;SDS011;5493;48.884;8.338;2024-03-22T12:33:36;3.92;;;2.22;;
10880;SDS011;5493;48.884;8.338;2024-03-22T12:36:02;3.38;;;2.50;;
10880;SDS011;5493;48.884;8.338;2024-03-22T12:38:29;2.83;;;2.22;;
10880;SDS011;5493;48.884;8.338;2024-03-22T12:40:56;3.47;;;2.33;;
10880;SDS011;5493;48.884;8.338;2024-03-22T12:43:23;1.95;;;1.75;;
10880;SDS011;5493;48.884;8.338;2024-03-22T12:45:49;4.30;;;2.40;;
10880;SDS011;5493;48.884;8.338;2024-03-22T12:48:15;3.78;;;2.00;;
10880;SDS011;5493;48.884;8.338;2024-03-22T12:50:41;4.40;;;2.60;;
10880;SDS011;5493;48.884;8.338;2024-03-22T12:53:07;3.95;;;2.40;;
10880;SDS011;5493;48.884;8.338;2024-03-22T12:55:33;3.83;;;2.47;;
10880;SDS011;5493;48.884;8.338;2024-03-22T12:58:01;2.95;;;2.17;;
10880;SDS011;5493;48.884;8.338;2024-03-22T13:00:26;3.25;;;2.08;;
10880;SDS011;5493;48.884;8.338;2024-03-22T13:02:53;3.00;;;2.30;;
10880;SDS011;5493;48.884;8.338;2024-03-22T13:05:18;4.22;;;2.30;;
10880;SDS011;5493;48.884;8.338;2024-03-22T13:07:45;4.35;;;2.30;;
10880;SDS011;5493;48.884;8.338;2024-03-22T13:10:11;3.83;;;2.50;;
10880;SDS011;5493;48.884;8.338;2024-03-22T13:12:37;2.85;;;2.00;;
10880;SDS011;5493;48.884;8.338;2024-03-22T13:15:05;4.68;;;2.47;;
10880;SDS011;5493;48.884;8.338;2024-03-22T13:17:32;3.40;;;2.20;;
10880;SDS011;5493;48.884;8.338;2024-03-22T13:19:57;3.83;;;2.42;;
10880;SDS011;5493;48.884;8.338;2024-03-22T13:22:24;2.78;;;2.03;;
10880;SDS011;5493;48.884;8.338;2024-03-22T13:24:50;3.33;;;2.40;;
10880;SDS011;5493;48.884;8.338;2024-03-22T13:27:17;5.90;;;2.50;;
10880;SDS011;5493;48.884;8.338;2024-03-22T13:29:47;3.42;;;2.30;;
10880;SDS011;5493;48.884;8.338;2024-03-22T13:32:15;4.05;;;2.35;;
10880;SDS011;5493;48.884;8.338;2024-03-22T13:34:41;3.17;;;2.20;;
10880;SDS011;5493;48.884;8.338;2024-03-22T13:37:07;2.30;;;2.00;;
10880;SDS011;5493;48.884;8.338;2024-03-22T13:39:33;4.22;;;2.50;;
10880;SDS011;5493;48.884;8.338;2024-03-22T13:42:00;5.28;;;2.72;;
10880;SDS011;5493;48.884;8.338;2024-03-22T13:44:26;3.40;;;2.38;;
10880;SDS011;5493;48.884;8.338;2024-03-22T13:46:54;5.93;;;2.70;;
10880;SDS011;5493;48.884;8.338;2024-03-22T13:49:21;4.53;;;2.35;;
10880;SDS011;5493;48.884;8.338;2024-03-22T13:51:48;3.85;;;2.50;;
10880;SDS011;5493;48.884;8.338;2024-03-22T13:54:14;5.53;;;2.50;;
10880;SDS011;5493;48.884;8.338;2024-03-22T13:56:41;4.20;;;2.40;;
10880;SDS011;5493;48.884;8.338;2024-03-22T13:59:08;3.10;;;2.50;;
10880;SDS011;5493;48.884;8.338;2024-03-22T14:01:35;4.18;;;2.72;;
10880;SDS011;5493;48.884;8.338;2024-03-22T14:04:01;2.95;;;2.42;;
10880;SDS011;5493;48.884;8.338;2024-03-22T14:06:29;4.82;;;2.70;;
10880;SDS011;5493;48.884;8.338;2024-03-22T14:08:55;4.57;;;2.70;;
10880;SDS011;5493;48.884;8.338;2024-03-22T14:11:25;4.10;;;2.95;;
10880;SDS011;5493;48.884;8.338;2024-03-22T14:13:51;5.63;;;3.20;;
10880;SDS011;5493;48.884;8.338;2024-03-22T14:16:18;4.47;;;2.97;;
10880;SDS011;5493;48.884;8.338;2024-03-22T14:18:43;8.95;;;2.70;;
10880;SDS011;5493;48.884;8.338;2024-03-22T14:21:13;4.30;;;3.03;;
10880;SDS011;5493;48.884;8.338;2024-03-22T14:23:45;3.67;;;2.58;;
10880;SDS011;5493;48.884;8.338;2024-03-22T14:26:12;3.13;;;2.70;;
10880;SDS011;5493;48.884;8.338;2024-03-22T14:28:38;5.03;;;2.80;;
10880;SDS011;5493;48.884;8.338;2024-03-22T14:31:05;4.93;;;2.58;;
10880;SDS011;5493;48.884;8.338;2024-03-22T14:33:33;5.35;;;3.17;;
10880;SDS011;5493;48.884;8.338;2024-03-22T14:36:00;5.25;;;2.85;;
10880;SDS011;5493;48.884;8.338;2024-03-22T14:38:25;5.00;;;2.92;;
10880;SDS011;5493;48.884;8.338;2024-03-22T14:40:54;3.70;;;2.70;;
10880;SDS011;5493;48.884;8.338;2024-03-22T14:43:20;5.22;;;3.00;;
10880;SDS011;5493;48.884;8.338;2024-03-22T14:45:46;5.15;;;3.25;;
10880;SDS011;5493;48.884;8.338;2024-03-22T14:48:12;4.70;;;3.08;;
10880;SDS011;5493;48.884;8.338;2024-03-22T14:50:39;3.42;;;2.80;;
10880;SDS011;5493;48.884;8.338;2024-03-22T14:53:05;4.05;;;3.17;;
10880;SDS011;5493;48.884;8.338;2024-03-22T14:55:32;4.22;;;2.78;;